This is the latest recevied weather packets stored in our database for station/object EA3ANS-1. If no packets are shown the sender has not sent any weather packets the latest 10 day(s).
| Time | Temp. | Humidity | Pressure | Rain* | Wind** | Luminosity | Snow |
|---|---|---|---|---|---|---|---|
| 1777817563 | 19.44° C | - | 1013.6 hPa | 0 mm | 2.68 m/s, 146° | - | - |
| 1777816960 | 19.44° C | - | 1013.9 hPa | 0 mm | 1.79 m/s, 107° | - | - |
| 1777816363 | 19.44° C | - | 1014 hPa | 0 mm | 2.24 m/s, 124° | - | - |
| 1777815766 | 19.44° C | - | 1014.2 hPa | 0 mm | 2.24 m/s, 134° | - | - |
| 1777815168 | 19.44° C | - | 1014.1 hPa | 0 mm | 2.24 m/s, 127° | - | - |
| 1777814563 | 18.89° C | - | 1014.6 hPa | 0 mm | 2.24 m/s, 121° | - | - |
| 1777813966 | 19.44° C | - | 1014.8 hPa | 0 mm | 3.13 m/s, 205° | - | - |
| 1777813369 | 19.44° C | - | 1014.9 hPa | 0 mm | 1.79 m/s, 128° | - | - |
| 1777812761 | 19.44° C | - | 1015 hPa | 0 mm | 3.13 m/s, 103° | - | - |
| 1777812164 | 19.44° C | - | 1015 hPa | 0 mm | 1.34 m/s, 86° | - | - |
| 1777811566 | 19.44° C | - | 1015.1 hPa | 0 mm | 2.24 m/s, 163° | - | - |
| 1777810969 | 18.89° C | - | 1015.1 hPa | 0 mm | 3.58 m/s, 180° | - | - |
| 1777810362 | 19.44° C | - | 1015.1 hPa | 0 mm | 3.13 m/s, 135° | - | - |
| 1777809761 | 18.89° C | - | 1015.2 hPa | 0 mm | 3.13 m/s, 205° | - | - |
| 1777809163 | 18.89° C | - | 1015.1 hPa | 0.51 mm | 3.13 m/s, 149° | - | - |
| 1777808564 | 18.89° C | - | 1015.1 hPa | 0.51 mm | 3.13 m/s, 143° | - | - |
| 1777807963 | 18.33° C | - | 1015.2 hPa | 0.51 mm | 1.79 m/s, 107° | - | - |
| 1777807364 | 18.33° C | - | 1015.5 hPa | 0.51 mm | 2.68 m/s, 169° | - | - |
| 1777806766 | 18.33° C | - | 1015.6 hPa | 0.51 mm | 0.89 m/s, 124° | - | - |
| 1777806162 | 17.22° C | - | 1015.8 hPa | 0.51 mm | 2.24 m/s, 103° | - | - |
| 1777805562 | 16.67° C | - | 1016.3 hPa | 0 mm | 3.58 m/s, 166° | - | - |
| 1777804963 | 17.78° C | - | 1015 hPa | 0 mm | 2.24 m/s, 131° | - | - |
| 1777804362 | 18.33° C | - | 1016.1 hPa | 0 mm | 1.34 m/s, 142° | - | - |
| 1777803764 | 18.33° C | - | 1016.3 hPa | 0 mm | 2.68 m/s, 139° | - | - |
| 1777803166 | 18.89° C | - | 1016.3 hPa | 0 mm | 1.79 m/s, 128° | - | - |
* Rain latest hour (hover to see other rain measurements)
** Current wind speed in m/s (hover to see current wind gust speed)